createdAt,value
2018-01-14T00:00:27.059Z,25.97
2018-01-14T00:02:57.931Z,20.47
2018-01-14T00:05:31.906Z,18.63
2018-01-14T00:08:03.752Z,20.48
2018-01-14T00:10:34.628Z,18.80
2018-01-14T00:13:05.438Z,21.10
2018-01-14T00:15:36.485Z,18.37
2018-01-14T00:18:07.371Z,18.50
2018-01-14T00:20:41.722Z,21.40
2018-01-14T00:23:12.571Z,20.10
2018-01-14T00:25:43.518Z,17.63
2018-01-14T00:28:14.478Z,19.73
2018-01-14T00:30:45.372Z,18.75
2018-01-14T00:33:16.215Z,21.70
2018-01-14T00:35:47.082Z,19.17
2018-01-14T00:38:18.833Z,15.70
2018-01-14T00:40:49.760Z,17.73
2018-01-14T00:43:20.591Z,21.63
2018-01-14T00:45:51.462Z,16.80
2018-01-14T00:48:22.360Z,18.47
2018-01-14T00:50:53.199Z,21.03
2018-01-14T00:53:23.999Z,19.70
2018-01-14T00:55:54.880Z,18.87
2018-01-14T00:58:25.735Z,17.43
2018-01-14T01:00:56.604Z,25.37
2018-01-14T01:03:27.429Z,26.77
2018-01-14T01:05:58.304Z,21.20
2018-01-14T01:08:29.157Z,19.50
2018-01-14T01:11:00.325Z,19.13
2018-01-14T01:13:31.221Z,16.40
2018-01-14T01:16:02.219Z,20.47
2018-01-14T01:18:33.081Z,17.50
2018-01-14T01:21:04.105Z,19.60
2018-01-14T01:23:38.932Z,20.88
2018-01-14T01:26:09.859Z,16.40
2018-01-14T01:28:40.752Z,19.57
2018-01-14T01:31:11.581Z,18.67
2018-01-14T01:33:42.437Z,17.70
2018-01-14T01:36:13.515Z,20.80
2018-01-14T01:38:44.344Z,19.37
2018-01-14T01:41:15.192Z,19.87
2018-01-14T01:43:46.026Z,18.13
2018-01-14T01:46:16.935Z,19.60
2018-01-14T01:48:47.758Z,20.83
2018-01-14T01:51:18.853Z,20.37
2018-01-14T01:53:49.733Z,18.05
2018-01-14T01:56:20.574Z,17.37
2018-01-14T01:58:51.428Z,16.27
2018-01-14T02:01:22.287Z,16.33
2018-01-14T02:03:53.128Z,14.00
2018-01-14T02:06:23.985Z,16.20
2018-01-14T02:08:54.869Z,16.70
2018-01-14T02:11:25.780Z,16.90
2018-01-14T02:13:56.616Z,17.30
2018-01-14T02:16:27.489Z,19.73
2018-01-14T02:18:58.388Z,16.90
2018-01-14T02:21:29.244Z,15.57
2018-01-14T02:24:00.087Z,20.67
2018-01-14T02:26:31.000Z,18.97
2018-01-14T02:29:01.846Z,19.30
2018-01-14T02:31:32.708Z,16.47
2018-01-14T02:34:03.609Z,15.10
2018-01-14T02:36:34.467Z,17.80
2018-01-14T02:39:05.300Z,13.03
2018-01-14T02:41:36.138Z,13.63
2018-01-14T02:44:06.986Z,13.20
2018-01-14T02:46:37.892Z,15.30
2018-01-14T02:49:08.805Z,13.60
2018-01-14T02:51:39.700Z,15.20
2018-01-14T02:54:10.537Z,15.23
2018-01-14T02:56:41.448Z,14.07
2018-01-14T02:59:12.385Z,12.17
2018-01-14T03:01:43.230Z,17.73
2018-01-14T03:04:14.064Z,11.90
2018-01-14T03:06:44.913Z,14.43
2018-01-14T03:09:15.796Z,13.50
2018-01-14T03:11:46.671Z,14.20
2018-01-14T03:14:17.565Z,12.63
2018-01-14T03:16:48.432Z,12.07
2018-01-14T03:19:19.242Z,12.63
2018-01-14T03:21:50.214Z,11.93
2018-01-14T03:24:21.054Z,13.20
2018-01-14T03:26:52.110Z,12.20
2018-01-14T03:29:23.002Z,13.52
2018-01-14T03:31:53.868Z,12.67
2018-01-14T03:34:24.700Z,12.70
2018-01-14T03:36:55.642Z,13.57
2018-01-14T03:39:26.994Z,12.47
2018-01-14T03:41:57.832Z,10.50
2018-01-14T03:44:28.689Z,13.17
2018-01-14T03:46:59.504Z,13.50
2018-01-14T03:49:30.386Z,11.87
2018-01-14T03:52:01.270Z,15.13
2018-01-14T03:54:32.108Z,11.23
2018-01-14T03:57:03.050Z,12.90
2018-01-14T03:59:33.891Z,12.30
2018-01-14T04:02:04.742Z,13.67
2018-01-14T04:04:35.553Z,14.00
2018-01-14T04:07:06.657Z,12.23
2018-01-14T04:09:37.505Z,14.68
2018-01-14T04:12:08.695Z,14.23
2018-01-14T04:14:39.621Z,12.43
2018-01-14T04:17:10.491Z,11.80
2018-01-14T04:19:41.429Z,11.57
2018-01-14T04:22:12.301Z,12.10
2018-01-14T04:24:43.136Z,9.27
2018-01-14T04:27:14.008Z,10.23
2018-01-14T04:29:44.837Z,10.03
2018-01-14T04:32:15.674Z,10.50
2018-01-14T04:34:46.509Z,13.13
2018-01-14T04:37:17.324Z,11.60
2018-01-14T04:39:48.157Z,10.20
2018-01-14T04:42:19.023Z,12.20
2018-01-14T04:44:49.839Z,10.93
2018-01-14T04:47:20.737Z,10.40
2018-01-14T04:49:51.561Z,11.70
2018-01-14T04:52:22.572Z,11.90
2018-01-14T04:54:53.398Z,11.85
2018-01-14T04:57:24.325Z,10.27
2018-01-14T04:59:55.225Z,10.57
2018-01-14T05:02:26.066Z,12.67
2018-01-14T05:04:56.897Z,9.93
2018-01-14T05:07:27.849Z,11.43
2018-01-14T05:09:58.685Z,12.47
2018-01-14T05:12:29.526Z,10.40
2018-01-14T05:15:00.349Z,9.87
2018-01-14T05:17:31.408Z,14.40
2018-01-14T05:20:05.714Z,11.30
2018-01-14T05:22:36.571Z,11.60
2018-01-14T05:25:07.431Z,10.60
2018-01-14T05:27:39.308Z,9.47
2018-01-14T05:30:10.166Z,12.10
2018-01-14T05:32:41.030Z,11.20
2018-01-14T05:35:11.972Z,11.97
2018-01-14T05:37:42.829Z,10.03
2018-01-14T05:40:13.689Z,9.67
2018-01-14T05:42:44.514Z,11.60
2018-01-14T05:45:15.364Z,10.80
2018-01-14T05:47:46.186Z,12.23
2018-01-14T05:50:17.046Z,10.63
2018-01-14T05:52:47.902Z,13.20
2018-01-14T05:55:18.757Z,13.40
2018-01-14T05:57:49.709Z,11.17
2018-01-14T06:00:20.574Z,11.80
2018-01-14T06:02:51.403Z,12.30
2018-01-14T06:05:22.330Z,12.83
2018-01-14T06:07:53.194Z,11.97
2018-01-14T06:10:24.036Z,10.70
2018-01-14T06:12:54.961Z,10.10
2018-01-14T06:15:25.766Z,9.67
2018-01-14T06:17:56.745Z,12.10
2018-01-14T06:20:27.654Z,11.90
2018-01-14T06:22:58.528Z,11.00
2018-01-14T06:25:29.382Z,13.73
2018-01-14T06:28:00.245Z,12.23
2018-01-14T06:30:31.085Z,12.10
2018-01-14T06:33:01.963Z,13.33
2018-01-14T06:35:32.784Z,12.30
2018-01-14T06:38:03.617Z,12.93
2018-01-14T06:40:34.474Z,13.77
2018-01-14T06:43:05.339Z,11.63
2018-01-14T06:45:36.198Z,10.90
2018-01-14T06:48:13.211Z,12.30
2018-01-14T06:50:44.025Z,13.07
2018-01-14T06:53:15.105Z,10.10
2018-01-14T06:55:45.933Z,11.55
2018-01-14T06:58:16.753Z,11.20
2018-01-14T07:00:47.618Z,11.73
2018-01-14T07:03:18.478Z,13.07
2018-01-14T07:05:49.359Z,9.23
2018-01-14T07:08:20.245Z,10.23
2018-01-14T07:10:51.097Z,9.50
2018-01-14T07:13:22.065Z,9.97
2018-01-14T07:15:52.923Z,11.73
2018-01-14T07:18:23.776Z,9.10
2018-01-14T07:20:54.708Z,11.60
2018-01-14T07:23:25.748Z,12.63
2018-01-14T07:25:56.605Z,12.18
2018-01-14T07:28:27.483Z,12.90
2018-01-14T07:31:01.607Z,9.50
2018-01-14T07:33:32.712Z,13.20
2018-01-14T07:36:03.535Z,12.40
2018-01-14T07:38:34.454Z,8.37
2018-01-14T07:41:05.305Z,11.23
2018-01-14T07:43:37.173Z,12.10
2018-01-14T07:46:08.086Z,9.65
2018-01-14T07:48:39.020Z,13.03
2018-01-14T07:51:09.890Z,13.63
2018-01-14T07:53:40.782Z,14.50
2018-01-14T07:56:11.740Z,12.00
2018-01-14T07:58:42.665Z,10.90
2018-01-14T08:01:13.577Z,11.10
2018-01-14T08:03:44.520Z,11.90
2018-01-14T08:06:15.398Z,13.03
2018-01-14T08:08:49.909Z,10.97
2018-01-14T08:11:20.780Z,10.38
2018-01-14T08:13:51.666Z,8.80
2018-01-14T08:16:22.664Z,12.90
2018-01-14T08:18:53.807Z,12.90
2018-01-14T08:21:24.664Z,11.70
2018-01-14T08:23:55.595Z,9.57
2018-01-14T08:26:26.467Z,11.80
2018-01-14T08:28:57.410Z,12.47
2018-01-14T08:31:28.251Z,11.27
2018-01-14T08:33:59.151Z,9.67
2018-01-14T08:36:30.196Z,10.73
2018-01-14T08:39:01.048Z,10.40
2018-01-14T08:41:31.944Z,9.60
2018-01-14T08:44:04.043Z,12.10
2018-01-14T08:46:38.683Z,10.32
2018-01-14T08:49:09.669Z,11.48
2018-01-14T08:51:40.680Z,11.12
2018-01-14T08:54:11.652Z,9.68
2018-01-14T08:56:42.651Z,13.52
2018-01-14T08:59:13.637Z,8.35
2018-01-14T09:01:49.491Z,8.93
2018-01-14T09:04:20.408Z,14.57
2018-01-14T09:06:51.287Z,9.80
2018-01-14T09:09:22.269Z,8.90
2018-01-14T09:11:53.218Z,9.60
2018-01-14T09:14:24.111Z,9.90
2018-01-14T09:16:55.078Z,9.57
2018-01-14T09:19:26.081Z,7.97
2018-01-14T09:21:58.946Z,9.27
2018-01-14T09:24:29.969Z,10.57
2018-01-14T09:27:00.884Z,9.00
2018-01-14T09:29:35.144Z,9.43
2018-01-14T09:32:06.064Z,8.35
2018-01-14T09:34:36.914Z,8.50
2018-01-14T09:37:07.779Z,9.37
2018-01-14T09:39:38.709Z,7.00
2018-01-14T09:42:09.598Z,8.47
2018-01-14T09:44:40.551Z,9.33
2018-01-14T09:47:11.421Z,8.93
2018-01-14T09:49:42.454Z,9.60
2018-01-14T09:52:13.279Z,12.43
2018-01-14T09:54:44.183Z,12.10
2018-01-14T09:57:15.028Z,11.50
2018-01-14T09:59:45.888Z,10.27
2018-01-14T10:02:16.711Z,10.27
2018-01-14T10:04:47.606Z,8.50
2018-01-14T10:07:19.468Z,11.30
2018-01-14T10:09:52.377Z,8.15
2018-01-14T10:12:26.939Z,7.95
2018-01-14T10:14:57.807Z,9.82
2018-01-14T10:17:29.677Z,8.13
2018-01-14T10:20:00.702Z,10.30
2018-01-14T10:22:31.852Z,9.65
2018-01-14T10:25:02.736Z,10.75
2018-01-14T10:27:33.617Z,10.07
2018-01-14T10:30:04.649Z,9.83
2018-01-14T10:32:35.610Z,12.30
2018-01-14T10:35:06.485Z,11.70
2018-01-14T10:37:37.318Z,11.23
2018-01-14T10:40:08.189Z,10.37
2018-01-14T10:42:39.085Z,10.80
2018-01-14T10:45:10.023Z,11.27
2018-01-14T10:47:40.978Z,10.40
2018-01-14T10:50:11.917Z,9.33
2018-01-14T10:52:42.864Z,12.13
2018-01-14T10:55:13.706Z,10.07
2018-01-14T10:57:44.557Z,11.57
2018-01-14T11:00:15.355Z,10.20
2018-01-14T11:02:46.178Z,9.43
2018-01-14T11:05:17.026Z,8.50
2018-01-14T11:07:47.989Z,9.23
2018-01-14T11:10:18.816Z,9.60
2018-01-14T11:12:49.608Z,9.60
2018-01-14T11:18:17.706Z,8.43
2018-01-14T11:20:48.589Z,9.70
2018-01-14T11:23:19.342Z,10.03
2018-01-14T11:25:50.233Z,11.30
2018-01-14T11:28:29.225Z,9.97
2018-01-14T11:30:59.997Z,13.73
2018-01-14T11:33:30.783Z,11.50
2018-01-14T11:36:01.673Z,10.00
2018-01-14T11:38:32.447Z,9.73
2018-01-14T11:41:03.246Z,9.60
2018-01-14T11:43:34.012Z,10.60
2018-01-14T11:46:04.783Z,10.47
2018-01-14T11:48:36.654Z,10.63
2018-01-14T11:51:08.546Z,10.55
2018-01-14T11:53:40.351Z,10.73
2018-01-14T11:56:12.132Z,10.63
2018-01-14T11:58:43.888Z,8.18
2018-01-14T12:01:14.761Z,11.35
2018-01-14T12:03:45.762Z,10.33
2018-01-14T12:06:16.604Z,8.20
2018-01-14T12:08:47.468Z,9.13
2018-01-14T12:11:18.273Z,8.63
2018-01-14T12:13:49.277Z,7.73
2018-01-14T12:16:20.090Z,9.63
2018-01-14T12:18:52.160Z,7.77
2018-01-14T12:21:22.917Z,8.73
2018-01-14T12:23:53.651Z,11.47
2018-01-14T12:26:24.468Z,10.20
2018-01-14T12:28:57.121Z,7.87
2018-01-14T12:31:29.080Z,8.90
2018-01-14T12:50:36.313Z,10.60
2018-01-14T12:53:07.116Z,9.17
2018-01-14T12:55:37.929Z,10.70
2018-01-14T12:58:10.761Z,7.80
2018-01-14T13:00:49.340Z,9.32
2018-01-14T13:03:22.239Z,10.27
2018-01-14T13:05:52.988Z,10.27
2018-01-14T13:08:23.755Z,10.00
2018-01-14T13:10:54.740Z,8.47
2018-01-14T13:13:25.521Z,7.10
2018-01-14T13:15:57.304Z,8.30
2018-01-14T13:18:40.830Z,8.23
2018-01-14T13:21:12.612Z,9.77
2018-01-14T13:23:43.501Z,8.60
2018-01-14T13:26:21.754Z,7.93
2018-01-14T13:29:00.272Z,8.27
2018-01-14T13:31:31.105Z,7.47
2018-01-14T13:34:01.934Z,9.80
2018-01-14T13:36:32.797Z,8.50
2018-01-14T13:39:03.783Z,7.50
2018-01-14T13:41:34.601Z,8.75
2018-01-14T13:44:05.434Z,8.43
2018-01-14T13:46:36.223Z,8.10
2018-01-14T13:49:07.100Z,7.37
2018-01-14T13:51:37.889Z,8.77
2018-01-14T13:54:08.658Z,9.33
2018-01-14T13:56:39.413Z,7.63
2018-01-14T13:59:10.221Z,7.93
2018-01-14T14:01:41.058Z,8.70
2018-01-14T14:04:11.920Z,10.07
2018-01-14T14:06:42.691Z,7.77
2018-01-14T14:09:13.457Z,12.80
2018-01-14T14:11:44.279Z,8.70
2018-01-14T14:14:15.058Z,9.00
2018-01-14T14:16:45.788Z,9.33
2018-01-14T14:19:24.730Z,9.23
2018-01-14T14:21:55.508Z,9.75
2018-01-14T14:24:26.675Z,7.23
2018-01-14T14:26:57.598Z,6.97
2018-01-14T14:29:28.420Z,7.80
2018-01-14T14:31:59.225Z,8.67
2018-01-14T14:34:30.015Z,9.67
2018-01-14T14:37:00.830Z,8.23
2018-01-14T14:39:31.806Z,9.87
2018-01-14T14:42:02.605Z,10.07
2018-01-14T14:44:33.502Z,9.37
2018-01-14T14:47:04.280Z,12.07
2018-01-14T14:49:35.048Z,8.83
2018-01-14T14:52:05.798Z,8.03
2018-01-14T14:54:36.592Z,11.13
2018-01-14T14:57:07.468Z,8.77
2018-01-14T14:59:38.303Z,8.13
2018-01-14T15:02:09.103Z,10.03
2018-01-14T15:04:40.029Z,6.60
2018-01-14T15:07:10.792Z,9.50
2018-01-14T15:09:41.552Z,8.10
2018-01-14T15:12:12.417Z,9.20
2018-01-14T15:14:43.517Z,7.90
2018-01-14T15:17:14.351Z,8.10
2018-01-14T15:19:45.547Z,7.07
2018-01-14T15:22:16.434Z,10.75
2018-01-14T15:24:47.421Z,9.20
2018-01-14T15:27:18.219Z,8.40
2018-01-14T15:29:49.027Z,8.47
2018-01-14T15:32:19.887Z,10.33
2018-01-14T15:34:50.704Z,7.37
2018-01-14T15:37:21.508Z,7.73
2018-01-14T15:39:52.326Z,7.30
2018-01-14T15:42:23.201Z,7.13
2018-01-14T15:44:54.256Z,7.80
2018-01-14T15:47:25.051Z,8.57
2018-01-14T15:49:56.093Z,7.13
2018-01-14T15:52:26.944Z,11.95
2018-01-14T15:54:57.705Z,9.00
2018-01-14T15:57:28.472Z,7.33
2018-01-14T15:59:59.538Z,7.87
2018-01-14T16:02:30.524Z,9.20
2018-01-14T16:05:01.304Z,9.85
2018-01-14T16:07:32.196Z,8.67
2018-01-14T16:10:02.985Z,7.97
2018-01-14T16:12:34.034Z,8.27
2018-01-14T16:15:04.955Z,7.90
2018-01-14T16:17:35.871Z,8.63
2018-01-14T16:20:06.724Z,8.83
2018-01-14T16:22:37.504Z,7.77
2018-01-14T16:25:08.330Z,7.60
2018-01-14T16:27:39.396Z,8.73
2018-01-14T16:30:10.175Z,9.82
2018-01-14T16:32:40.934Z,7.00
2018-01-14T16:35:11.779Z,7.93
2018-01-14T16:37:42.527Z,8.97
2018-01-14T16:40:13.425Z,6.90
2018-01-14T16:42:44.213Z,9.00
2018-01-14T16:45:15.000Z,9.17
2018-01-14T16:47:45.890Z,7.97
2018-01-14T16:50:16.706Z,9.37
2018-01-14T16:52:47.602Z,8.50
2018-01-14T16:55:18.893Z,7.90
2018-01-14T16:57:49.718Z,9.23
2018-01-14T17:00:20.533Z,7.87
2018-01-14T17:02:51.312Z,6.70
2018-01-14T17:05:22.210Z,7.90
2018-01-14T17:07:53.099Z,7.60
2018-01-14T17:10:23.978Z,7.50
2018-01-14T17:12:55.014Z,7.03
2018-01-14T17:15:25.785Z,8.13
2018-01-14T17:17:56.643Z,7.70
2018-01-14T17:20:27.451Z,9.40
2018-01-14T17:22:58.494Z,9.73
2018-01-14T17:25:29.526Z,9.73
2018-01-14T17:28:00.600Z,8.88
2018-01-14T17:30:31.407Z,9.23
2018-01-14T17:33:02.169Z,8.23
2018-01-14T17:35:33.229Z,9.70
2018-01-14T17:38:04.033Z,9.90
2018-01-14T17:40:35.174Z,8.60
2018-01-14T17:43:06.230Z,8.48
2018-01-14T17:45:37.081Z,9.05
2018-01-14T17:48:08.160Z,9.63
2018-01-14T17:50:39.223Z,10.63
2018-01-14T17:53:10.265Z,9.85
2018-01-14T17:55:41.084Z,8.70
2018-01-14T17:58:12.007Z,9.23
2018-01-14T18:00:42.822Z,9.27
2018-01-14T18:03:13.639Z,7.73
2018-01-14T18:05:44.504Z,9.33
2018-01-14T18:08:15.290Z,8.20
2018-01-14T18:10:46.112Z,10.00
2018-01-14T18:13:16.952Z,9.83
2018-01-14T18:15:47.811Z,7.63
2018-01-14T18:18:18.720Z,11.30
2018-01-14T18:20:49.609Z,10.07
2018-01-14T18:23:20.433Z,9.40
2018-01-14T18:25:51.196Z,8.83
2018-01-14T18:28:21.973Z,10.73
2018-01-14T18:30:52.975Z,10.80
2018-01-14T18:33:23.792Z,8.23
2018-01-14T18:35:54.831Z,9.77
2018-01-14T18:38:25.690Z,8.32
2018-01-14T18:40:57.429Z,9.87
2018-01-14T18:43:28.266Z,10.15
2018-01-14T18:46:08.250Z,10.10
2018-01-14T18:48:39.276Z,10.65
2018-01-14T18:51:13.784Z,9.90
2018-01-14T18:53:44.609Z,9.80
2018-01-14T18:56:15.475Z,12.83
2018-01-14T18:58:46.289Z,8.93
2018-01-14T19:01:17.129Z,9.57
2018-01-14T19:03:47.932Z,9.70
2018-01-14T19:06:18.810Z,8.67
2018-01-14T19:08:49.666Z,8.50
2018-01-14T19:11:20.483Z,12.20
2018-01-14T19:13:51.377Z,12.20
2018-01-14T19:16:22.179Z,11.57
2018-01-14T19:18:52.985Z,11.37
2018-01-14T19:21:23.805Z,9.60
2018-01-14T19:23:54.564Z,10.17
2018-01-14T19:26:25.348Z,10.60
2018-01-14T19:28:56.174Z,10.50
2018-01-14T19:31:26.992Z,11.07
2018-01-14T19:33:57.830Z,9.73
2018-01-14T19:36:28.620Z,9.13
2018-01-14T19:38:59.398Z,11.13
2018-01-14T19:41:30.280Z,10.10
2018-01-14T19:44:01.049Z,9.50
2018-01-14T19:46:31.903Z,11.47
2018-01-14T19:49:02.761Z,11.63
2018-01-14T19:51:33.571Z,9.60
2018-01-14T19:54:04.470Z,11.10
2018-01-14T19:56:35.610Z,8.43
2018-01-14T19:59:06.427Z,12.10
2018-01-14T20:01:37.289Z,8.33
2018-01-14T20:04:08.032Z,10.07
2018-01-14T20:06:38.887Z,12.10
2018-01-14T20:09:09.673Z,9.70
2018-01-14T20:11:40.484Z,8.87
2018-01-14T20:14:11.300Z,10.50
2018-01-14T20:16:42.102Z,9.77
2018-01-14T20:19:12.907Z,8.63
2018-01-14T20:21:43.748Z,10.67
2018-01-14T20:24:31.428Z,10.20
2018-01-14T20:27:05.998Z,11.10
2018-01-14T20:29:36.872Z,10.98
2018-01-14T20:32:07.702Z,10.10
2018-01-14T20:34:38.607Z,10.13
2018-01-14T20:37:09.424Z,9.90
2018-01-14T20:39:40.325Z,10.03
2018-01-14T20:42:11.150Z,11.23
2018-01-14T20:44:48.254Z,8.70
2018-01-14T20:47:19.066Z,11.55
2018-01-14T20:49:49.928Z,11.77
2018-01-14T20:52:20.767Z,9.73
2018-01-14T20:54:51.612Z,9.80
2018-01-14T20:57:22.373Z,12.90
2018-01-14T20:59:53.325Z,12.03
2018-01-14T21:02:24.170Z,9.83
2018-01-14T21:04:54.972Z,10.10
2018-01-14T21:07:25.894Z,9.93
2018-01-14T21:09:56.732Z,10.30
2018-01-14T21:12:27.651Z,11.00
2018-01-14T21:14:58.466Z,11.00
2018-01-14T21:17:29.282Z,14.70
2018-01-14T21:20:00.133Z,10.90
2018-01-14T21:22:30.923Z,10.93
2018-01-14T21:25:01.740Z,10.73
2018-01-14T21:27:32.668Z,9.70
2018-01-14T21:30:10.528Z,11.00
2018-01-14T21:32:41.415Z,11.57
2018-01-14T21:35:12.242Z,10.60
2018-01-14T21:37:43.065Z,10.93
2018-01-14T21:40:13.881Z,13.70
2018-01-14T21:42:44.691Z,14.20
2018-01-14T21:45:15.631Z,11.87
2018-01-14T21:47:46.514Z,11.70
2018-01-14T21:50:17.377Z,11.47
2018-01-14T21:52:48.447Z,12.13
2018-01-14T21:55:27.125Z,10.82
2018-01-14T21:57:59.225Z,11.45
2018-01-14T22:00:30.099Z,10.90
2018-01-14T22:03:00.912Z,13.20
2018-01-14T22:05:31.718Z,12.43
2018-01-14T22:08:02.637Z,10.10
2018-01-14T22:10:33.444Z,9.90
2018-01-14T22:13:04.205Z,10.07
2018-01-14T22:15:36.109Z,10.97
2018-01-14T22:18:07.055Z,11.38
2018-01-14T22:20:38.056Z,11.73
2018-01-14T22:23:09.744Z,11.27
2018-01-14T22:25:40.556Z,10.02
2018-01-14T22:28:11.359Z,10.10
2018-01-14T22:30:42.499Z,11.47
2018-01-14T22:33:13.273Z,9.60
2018-01-14T22:35:44.071Z,9.43
2018-01-14T22:38:14.868Z,9.47
2018-01-14T22:40:45.765Z,10.30
2018-01-14T22:43:16.602Z,12.60
2018-01-14T22:45:48.349Z,11.33
2018-01-14T22:48:19.223Z,13.25
2018-01-14T22:50:50.385Z,10.53
2018-01-14T22:53:21.446Z,10.50
2018-01-14T22:55:52.172Z,11.00
2018-01-14T22:58:22.963Z,12.90
2018-01-14T23:00:54.148Z,10.87
2018-01-14T23:03:25.035Z,13.30
2018-01-14T23:05:55.870Z,12.40
2018-01-14T23:08:26.760Z,12.13
2018-01-14T23:10:57.552Z,12.43
2018-01-14T23:13:28.463Z,10.53
2018-01-14T23:15:59.328Z,11.80
2018-01-14T23:18:30.126Z,11.57
2018-01-14T23:21:01.074Z,11.67
2018-01-14T23:23:31.901Z,11.90
2018-01-14T23:26:02.720Z,14.97
2018-01-14T23:28:33.501Z,12.03
2018-01-14T23:31:20.163Z,14.17
2018-01-14T23:33:50.928Z,10.88
2018-01-14T23:36:21.727Z,11.90
2018-01-14T23:38:52.808Z,11.80
2018-01-14T23:41:23.600Z,11.30
2018-01-14T23:43:54.432Z,12.00
2018-01-14T23:46:25.294Z,13.33
2018-01-14T23:48:56.065Z,12.00
2018-01-14T23:51:26.852Z,10.07
2018-01-14T23:53:58.733Z,9.90
2018-01-14T23:56:29.549Z,11.12
2018-01-14T23:59:00.357Z,9.37
